createdAt,value
2019-04-06T00:02:10.012Z,11.97
2019-04-06T00:04:37.237Z,12.67
2019-04-06T00:07:04.531Z,11.83
2019-04-06T00:09:31.741Z,12.10
2019-04-06T00:11:58.999Z,12.67
2019-04-06T00:14:26.254Z,12.87
2019-04-06T00:16:53.511Z,12.30
2019-04-06T00:19:20.783Z,13.00
2019-04-06T00:21:48.065Z,12.67
2019-04-06T00:24:15.289Z,12.33
2019-04-06T00:26:42.597Z,12.53
2019-04-06T00:29:09.807Z,12.77
2019-04-06T00:32:08.631Z,12.00
2019-04-06T00:34:36.049Z,13.67
2019-04-06T00:37:03.271Z,12.83
2019-04-06T00:39:30.548Z,12.63
2019-04-06T00:41:57.783Z,12.73
2019-04-06T00:44:24.997Z,13.50
2019-04-06T00:46:52.320Z,14.30
2019-04-06T00:49:19.677Z,13.03
2019-04-06T00:51:46.877Z,13.50
2019-04-06T00:54:14.118Z,13.87
2019-04-06T00:56:41.359Z,13.53
2019-04-06T00:59:08.599Z,12.53
2019-04-06T01:01:35.822Z,12.70
2019-04-06T01:04:03.026Z,13.00
2019-04-06T01:06:30.282Z,13.40
2019-04-06T01:08:57.502Z,13.20
2019-04-06T01:11:24.718Z,12.93
2019-04-06T01:13:51.996Z,10.60
2019-04-06T01:16:19.263Z,10.53
2019-04-06T01:18:46.441Z,10.97
2019-04-06T01:21:13.703Z,11.80
2019-04-06T01:23:40.957Z,11.03
2019-04-06T01:26:08.186Z,10.93
2019-04-06T01:28:35.497Z,10.83
2019-04-06T01:31:02.727Z,10.87
2019-04-06T01:33:29.942Z,10.53
2019-04-06T01:35:57.218Z,10.93
2019-04-06T01:38:24.477Z,11.23
2019-04-06T01:40:51.695Z,10.77
2019-04-06T01:43:19.010Z,10.70
2019-04-06T01:45:46.370Z,11.40
2019-04-06T01:48:13.585Z,12.33
2019-04-06T01:50:40.877Z,11.07
2019-04-06T01:53:08.245Z,11.20
2019-04-06T01:55:35.684Z,11.43
2019-04-06T01:58:02.931Z,11.37
2019-04-06T02:00:30.156Z,11.10
2019-04-06T02:02:57.457Z,9.77
2019-04-06T02:05:24.829Z,10.53
2019-04-06T02:07:52.053Z,10.73
2019-04-06T02:10:19.823Z,10.47
2019-04-06T02:12:47.017Z,10.43
2019-04-06T02:15:14.357Z,10.13
2019-04-06T02:17:41.617Z,10.57
2019-04-06T02:20:08.957Z,9.90
2019-04-06T02:22:36.304Z,10.10
2019-04-06T02:25:04.319Z,10.20
2019-04-06T02:27:31.637Z,10.37
2019-04-06T02:30:22.393Z,10.47
2019-04-06T02:33:07.580Z,9.70
2019-04-06T02:36:09.606Z,9.37
2019-04-06T02:39:11.771Z,9.47
2019-04-06T02:41:56.667Z,10.43
2019-04-06T02:44:23.891Z,9.20
2019-04-06T02:46:51.140Z,9.47
2019-04-06T02:49:18.385Z,9.70
2019-04-06T02:51:45.586Z,9.40
2019-04-06T02:54:13.088Z,9.73
2019-04-06T02:56:46.258Z,8.70
2019-04-06T02:59:09.557Z,8.67
2019-04-06T03:01:36.821Z,9.47
2019-04-06T03:04:04.087Z,9.57
2019-04-06T03:06:31.461Z,9.63
2019-04-06T03:08:58.783Z,10.03
2019-04-06T03:11:26.018Z,9.97
2019-04-06T03:13:53.542Z,10.67
2019-04-06T03:16:20.826Z,9.77
2019-04-06T03:18:48.043Z,10.60
2019-04-06T03:21:15.281Z,10.30
2019-04-06T03:23:50.810Z,10.20
2019-04-06T03:26:11.700Z,9.57
2019-04-06T03:28:38.986Z,9.23
2019-04-06T03:31:06.240Z,9.37
2019-04-06T03:33:33.442Z,10.13
2019-04-06T03:36:01.051Z,8.90
2019-04-06T03:38:28.771Z,9.77
2019-04-06T03:40:56.050Z,10.13
2019-04-06T03:43:23.286Z,9.53
2019-04-06T03:45:50.534Z,10.30
2019-04-06T03:48:17.799Z,9.53
2019-04-06T03:50:45.045Z,9.87
2019-04-06T03:53:12.665Z,9.80
2019-04-06T03:55:39.969Z,10.30
2019-04-06T03:58:07.583Z,9.63
2019-04-06T04:00:34.831Z,9.97
2019-04-06T04:03:02.069Z,10.07
2019-04-06T04:05:29.497Z,10.33
2019-04-06T04:07:56.726Z,10.07
2019-04-06T04:10:35.002Z,9.63
2019-04-06T04:13:02.497Z,10.10
2019-04-06T04:15:29.760Z,9.90
2019-04-06T04:17:57.186Z,10.30
2019-04-06T04:20:26.581Z,10.10
2019-04-06T04:22:53.878Z,10.53
2019-04-06T04:25:21.352Z,10.10
2019-04-06T04:27:48.668Z,10.03
2019-04-06T04:30:30.748Z,10.83
2019-04-06T04:32:45.050Z,9.70
2019-04-06T04:35:12.261Z,10.33
2019-04-06T04:37:39.583Z,9.97
2019-04-06T04:40:06.926Z,10.10
2019-04-06T04:42:34.378Z,10.53
2019-04-06T04:45:01.586Z,10.17
2019-04-06T04:47:28.826Z,10.43
2019-04-06T04:49:56.132Z,9.83
2019-04-06T04:52:23.382Z,10.27
2019-04-06T04:54:50.631Z,11.07
2019-04-06T04:57:18.134Z,10.53
2019-04-06T04:59:45.577Z,9.77
2019-04-06T05:02:12.819Z,10.33
2019-04-06T05:04:40.077Z,10.73
2019-04-06T05:07:07.357Z,10.47
2019-04-06T05:09:35.000Z,10.33
2019-04-06T05:12:02.238Z,10.33
2019-04-06T05:14:55.743Z,9.83
2019-04-06T05:17:23.025Z,9.70
2019-04-06T05:19:50.302Z,11.10
2019-04-06T05:22:17.542Z,11.37
2019-04-06T05:24:44.797Z,10.80
2019-04-06T05:27:12.042Z,11.47
2019-04-06T05:29:39.317Z,13.33
2019-04-06T05:32:06.543Z,16.13
2019-04-06T05:34:34.737Z,11.13
2019-04-06T05:37:01.977Z,12.17
2019-04-06T05:39:29.237Z,11.33
2019-04-06T05:41:56.476Z,10.23
2019-04-06T05:44:23.888Z,10.27
2019-04-06T05:46:51.248Z,9.80
2019-04-06T05:49:18.477Z,9.33
2019-04-06T05:51:46.154Z,9.43
2019-04-06T05:54:13.422Z,8.83
2019-04-06T05:56:40.762Z,7.40
2019-04-06T05:59:10.046Z,7.53
2019-04-06T06:01:40.283Z,7.00
2019-04-06T06:04:06.472Z,6.53
2019-04-06T06:06:34.802Z,6.57
2019-04-06T06:09:02.075Z,6.53
2019-04-06T06:11:29.418Z,7.00
2019-04-06T06:13:56.790Z,6.33
2019-04-06T06:16:24.162Z,7.10
2019-04-06T06:18:51.389Z,6.30
2019-04-06T06:21:18.820Z,6.97
2019-04-06T06:23:46.146Z,14.73
2019-04-06T06:26:13.596Z,12.57
2019-04-06T06:28:40.844Z,7.90
2019-04-06T06:31:08.183Z,6.47
2019-04-06T06:33:35.606Z,6.60
2019-04-06T06:36:03.041Z,6.93
2019-04-06T06:38:30.421Z,6.43
2019-04-06T06:40:57.719Z,7.10
2019-04-06T06:43:24.945Z,6.53
2019-04-06T06:45:52.331Z,6.87
2019-04-06T06:48:19.638Z,7.10
2019-04-06T06:50:49.816Z,6.20
2019-04-06T06:53:17.057Z,7.07
2019-04-06T06:55:44.396Z,6.77
2019-04-06T06:58:11.678Z,6.57
2019-04-06T07:00:38.931Z,7.50
2019-04-06T07:03:06.166Z,7.33
2019-04-06T07:05:33.436Z,7.13
2019-04-06T07:08:00.801Z,7.27
2019-04-06T07:10:27.975Z,7.10
2019-04-06T07:12:55.348Z,7.33
2019-04-06T07:15:22.808Z,8.10
2019-04-06T07:17:51.802Z,6.47
2019-04-06T07:20:19.126Z,7.10
2019-04-06T07:22:46.596Z,6.87
2019-04-06T07:25:13.984Z,7.10
2019-04-06T07:27:43.846Z,6.57
2019-04-06T07:30:12.110Z,6.60
2019-04-06T07:32:39.403Z,6.73
2019-04-06T07:35:06.762Z,6.50
2019-04-06T07:37:34.162Z,6.60
2019-04-06T07:40:01.546Z,6.10
2019-04-06T07:42:28.731Z,6.40
2019-04-06T07:44:55.978Z,6.00
2019-04-06T07:47:23.219Z,6.00
2019-04-06T07:49:50.394Z,6.10
2019-04-06T07:52:17.657Z,6.10
2019-04-06T07:54:44.889Z,6.43
2019-04-06T07:57:12.140Z,6.03
2019-04-06T07:59:39.441Z,6.07
2019-04-06T08:02:06.690Z,6.07
2019-04-06T08:04:33.924Z,5.50
2019-04-06T08:07:01.199Z,5.73
2019-04-06T08:09:28.498Z,5.80
2019-04-06T08:11:56.076Z,5.30
2019-04-06T08:14:23.366Z,6.30
2019-04-06T08:16:50.846Z,5.60
2019-04-06T08:19:18.678Z,5.33
2019-04-06T08:21:46.010Z,5.77
2019-04-06T08:24:13.273Z,5.03
2019-04-06T08:26:40.606Z,5.47
2019-04-06T08:29:07.879Z,5.40
2019-04-06T08:31:35.122Z,5.33
2019-04-06T08:34:02.508Z,4.70
2019-04-06T08:36:29.827Z,5.27
2019-04-06T08:38:57.088Z,4.93
2019-04-06T08:41:24.378Z,4.87
2019-04-06T08:43:51.605Z,5.00
2019-04-06T08:46:18.827Z,5.10
2019-04-06T08:48:46.116Z,4.40
2019-04-06T08:51:13.353Z,3.20
2019-04-06T08:53:40.562Z,4.20
2019-04-06T08:56:07.867Z,4.33
2019-04-06T08:58:35.085Z,4.57
2019-04-06T09:01:02.410Z,4.37
2019-04-06T09:03:29.747Z,4.40
2019-04-06T09:05:56.999Z,4.10
2019-04-06T09:08:24.278Z,4.33
2019-04-06T09:10:51.602Z,4.37
2019-04-06T09:13:18.992Z,4.00
2019-04-06T09:15:46.244Z,4.40
2019-04-06T09:18:13.796Z,4.40
2019-04-06T09:20:41.129Z,4.30
2019-04-06T09:23:08.399Z,4.37
2019-04-06T09:25:35.664Z,4.60
2019-04-06T09:28:02.866Z,4.70
2019-04-06T09:30:30.196Z,5.10
2019-04-06T09:32:57.594Z,4.73
2019-04-06T09:35:24.859Z,5.13
2019-04-06T09:37:52.166Z,4.60
2019-04-06T09:40:19.476Z,5.03
2019-04-06T09:42:46.739Z,4.90
2019-04-06T09:45:38.329Z,5.40
2019-04-06T09:48:25.129Z,4.83
2019-04-06T09:51:10.799Z,4.87
2019-04-06T09:54:05.544Z,4.60
2019-04-06T09:56:34.956Z,4.40
2019-04-06T09:59:20.238Z,3.93
2019-04-06T10:02:05.910Z,5.03
2019-04-06T10:04:55.538Z,4.80
2019-04-06T10:07:51.284Z,5.57
2019-04-06T10:10:36.482Z,5.60
2019-04-06T10:13:23.333Z,5.47
2019-04-06T10:16:08.596Z,7.00
2019-04-06T10:18:58.237Z,5.50
2019-04-06T10:21:43.851Z,5.63
2019-04-06T10:24:29.638Z,5.40
2019-04-06T10:27:19.715Z,5.53
2019-04-06T10:30:18.708Z,5.70
2019-04-06T10:33:00.461Z,5.00
2019-04-06T10:35:53.502Z,5.20
2019-04-06T10:38:38.869Z,5.37
2019-04-06T10:41:18.410Z,5.07
2019-04-06T10:44:11.066Z,5.13
2019-04-06T10:46:55.428Z,4.73
2019-04-06T10:49:49.296Z,5.37
2019-04-06T10:52:45.075Z,4.47
2019-04-06T10:55:34.997Z,5.30
2019-04-06T10:58:31.010Z,6.00
2019-04-06T11:01:25.007Z,5.43
2019-04-06T11:04:15.007Z,4.83
2019-04-06T11:07:19.948Z,4.40
2019-04-06T11:10:05.661Z,4.53
2019-04-06T11:12:55.354Z,5.00
2019-04-06T11:15:54.019Z,4.87
2019-04-06T11:18:52.734Z,5.47
2019-04-06T11:21:45.738Z,5.00
2019-04-06T11:24:47.714Z,5.03
2019-04-06T11:27:46.420Z,5.70
2019-04-06T11:30:33.137Z,5.53
2019-04-06T11:33:28.997Z,6.13
2019-04-06T11:36:25.109Z,6.40
2019-04-06T11:39:10.335Z,6.17
2019-04-06T11:42:03.596Z,5.20
2019-04-06T11:44:48.965Z,5.23
2019-04-06T11:47:34.484Z,5.50
2019-04-06T11:50:21.471Z,5.57
2019-04-06T11:52:58.500Z,5.07
2019-04-06T11:55:38.379Z,5.13
2019-04-06T11:58:28.094Z,4.60
2019-04-06T12:01:26.937Z,4.07
2019-04-06T12:04:19.606Z,4.13
2019-04-06T12:07:00.793Z,3.73
2019-04-06T12:09:57.032Z,3.00
2019-04-06T12:12:46.246Z,4.37
2019-04-06T12:15:26.152Z,3.77
2019-04-06T12:18:03.783Z,3.33
2019-04-06T12:20:46.634Z,3.20
2019-04-06T12:23:42.704Z,3.23
2019-04-06T12:26:47.882Z,2.97
2019-04-06T12:29:52.823Z,2.87
2019-04-06T12:32:46.010Z,2.60
2019-04-06T12:35:32.893Z,2.60
2019-04-06T12:38:09.418Z,2.70
2019-04-06T12:40:58.814Z,2.00
2019-04-06T12:43:45.670Z,3.00
2019-04-06T12:46:38.436Z,2.40
2019-04-06T12:49:40.669Z,2.37
2019-04-06T12:52:33.723Z,3.10
2019-04-06T12:55:20.198Z,3.17
2019-04-06T12:58:07.026Z,2.87
2019-04-06T13:00:56.514Z,2.83
2019-04-06T13:03:50.129Z,3.03
2019-04-06T13:06:35.406Z,4.10
2019-04-06T13:09:18.811Z,4.37
2019-04-06T13:11:54.501Z,4.17
2019-04-06T13:14:31.607Z,4.30
2019-04-06T13:17:19.035Z,3.40
2019-04-06T13:20:10.540Z,3.40
2019-04-06T13:23:03.712Z,3.73
2019-04-06T13:25:47.927Z,3.60
2019-04-06T13:28:24.761Z,3.63
2019-04-06T13:31:10.245Z,3.17
2019-04-06T13:34:09.530Z,3.20
2019-04-06T13:36:55.546Z,3.80
2019-04-06T13:39:30.887Z,3.30
2019-04-06T13:42:16.419Z,3.33
2019-04-06T13:45:03.081Z,3.10
2019-04-06T13:47:49.934Z,3.20
2019-04-06T13:50:42.226Z,3.07
2019-04-06T13:53:34.867Z,2.67
2019-04-06T13:56:20.692Z,2.80
2019-04-06T13:59:02.979Z,2.83
2019-04-06T14:01:43.948Z,2.63
2019-04-06T14:04:39.044Z,3.00
2019-04-06T14:07:40.641Z,2.90
2019-04-06T14:10:16.651Z,2.53
2019-04-06T14:13:10.016Z,3.07
2019-04-06T14:15:56.954Z,3.00
2019-04-06T14:18:52.413Z,2.23
2019-04-06T14:21:54.183Z,2.67
2019-04-06T14:24:42.013Z,2.70
2019-04-06T14:27:38.085Z,3.00
2019-04-06T14:30:11.852Z,3.00
2019-04-06T14:33:07.823Z,2.70
2019-04-06T14:35:53.216Z,2.60
2019-04-06T14:38:43.140Z,2.90
2019-04-06T14:41:37.438Z,3.20
2019-04-06T14:44:26.959Z,2.37
2019-04-06T14:47:01.628Z,2.50
2019-04-06T14:49:52.165Z,2.03
2019-04-06T14:52:41.625Z,2.40
2019-04-06T14:55:24.463Z,2.53
2019-04-06T14:58:20.444Z,2.90
2019-04-06T15:01:07.551Z,2.63
2019-04-06T15:04:03.321Z,2.80
2019-04-06T15:06:53.614Z,2.60
2019-04-06T15:09:40.375Z,2.43
2019-04-06T15:12:26.713Z,2.50
2019-04-06T15:15:11.974Z,2.60
2019-04-06T15:17:55.318Z,2.53
2019-04-06T15:20:44.894Z,2.50
2019-04-06T15:23:49.780Z,2.60
2019-04-06T15:26:35.300Z,2.70
2019-04-06T15:29:20.880Z,2.73
2019-04-06T15:32:04.447Z,3.10
2019-04-06T15:34:52.827Z,2.73
2019-04-06T15:37:27.028Z,2.93
2019-04-06T15:40:19.558Z,2.57
2019-04-06T15:43:05.255Z,3.20
2019-04-06T15:45:55.426Z,2.80
2019-04-06T15:49:00.284Z,2.63
2019-04-06T15:52:09.660Z,2.73
2019-04-06T15:54:36.600Z,1.57
2019-04-06T15:57:13.150Z,2.40
2019-04-06T15:59:56.253Z,2.70
2019-04-06T16:02:55.028Z,1.50
2019-04-06T16:05:37.798Z,0.93
2019-04-06T16:08:24.131Z,1.73
2019-04-06T16:11:01.063Z,2.17
2019-04-06T16:13:48.710Z,4.27
2019-04-06T16:16:38.399Z,3.63
2019-04-06T16:19:14.271Z,5.73
2019-04-06T16:21:56.527Z,6.93
2019-04-06T16:24:31.711Z,7.10
2019-04-06T16:27:10.686Z,6.33
2019-04-06T16:29:53.740Z,5.97
2019-04-06T16:32:43.065Z,5.90
2019-04-06T16:35:31.494Z,6.97
2019-04-06T16:38:36.474Z,7.27
2019-04-06T16:41:22.626Z,7.53
2019-04-06T16:43:59.407Z,7.27
2019-04-06T16:47:04.995Z,7.30
2019-04-06T16:49:42.538Z,7.50
2019-04-06T16:52:35.681Z,7.43
2019-04-06T16:55:23.114Z,8.30
2019-04-06T16:58:14.637Z,8.33
2019-04-06T17:00:52.614Z,7.43
2019-04-06T17:03:38.422Z,7.60
2019-04-06T17:06:16.945Z,7.13
2019-04-06T17:09:13.097Z,9.43
2019-04-06T17:12:03.931Z,10.67
2019-04-06T17:14:51.748Z,11.40
2019-04-06T17:17:48.170Z,9.07
2019-04-06T17:20:34.083Z,11.50
2019-04-06T17:23:24.495Z,9.43
2019-04-06T17:26:13.823Z,5.03
2019-04-06T17:29:03.910Z,6.93
2019-04-06T17:31:56.929Z,7.20
2019-04-06T17:35:02.902Z,7.87
2019-04-06T17:37:56.678Z,4.30
2019-04-06T17:40:43.455Z,2.60
2019-04-06T17:43:43.053Z,2.90
2019-04-06T17:46:48.605Z,7.13
2019-04-06T17:49:29.674Z,4.67
2019-04-06T17:52:19.769Z,1.70
2019-04-06T17:55:05.906Z,0.80
2019-04-06T17:57:56.511Z,1.10
2019-04-06T18:00:44.989Z,1.63
2019-04-06T18:03:34.262Z,1.60
2019-04-06T18:06:15.679Z,1.10
2019-04-06T18:12:13.811Z,1.10
2019-04-06T18:14:42.892Z,0.80
2019-04-06T18:17:11.594Z,0.93
2019-04-06T18:19:39.362Z,1.20
2019-04-06T18:22:08.944Z,0.90
2019-04-06T18:24:43.408Z,0.80
2019-04-06T18:27:12.857Z,1.07
2019-04-06T18:29:41.938Z,0.83
2019-04-06T18:32:41.362Z,0.80
2019-04-06T18:35:12.336Z,1.30
2019-04-06T18:38:11.585Z,0.80
2019-04-06T18:40:39.349Z,1.00
2019-04-06T18:43:10.690Z,1.10
2019-04-06T18:45:38.831Z,1.00
2019-04-06T18:48:10.022Z,1.00
2019-04-06T18:50:40.777Z,0.93
2019-04-06T18:53:09.779Z,0.80
2019-04-06T18:55:37.826Z,0.90
2019-04-06T18:58:13.071Z,0.97
2019-04-06T19:00:41.309Z,0.50
2019-04-06T19:03:14.228Z,0.80
2019-04-06T19:05:39.786Z,0.90
2019-04-06T19:08:09.874Z,0.70
2019-04-06T19:10:40.511Z,0.70
2019-04-06T19:13:08.964Z,1.00
2019-04-06T19:15:38.848Z,0.80
2019-04-06T19:18:06.632Z,0.80
2019-04-06T19:20:36.111Z,0.70
2019-04-06T19:23:06.308Z,0.80
2019-04-06T19:25:35.425Z,0.97
2019-04-06T19:28:07.699Z,0.80
2019-04-06T19:30:35.554Z,0.80
2019-04-06T19:33:04.975Z,0.70
2019-04-06T19:35:33.132Z,0.80
2019-04-06T19:38:01.072Z,0.90
2019-04-06T19:40:29.271Z,0.70
2019-04-06T19:42:57.573Z,0.87
2019-04-06T19:45:25.914Z,0.77
2019-04-06T19:47:54.034Z,0.93
2019-04-06T19:50:22.217Z,0.97
2019-04-06T19:52:50.520Z,0.80
2019-04-06T19:55:19.185Z,0.80
2019-04-06T19:57:47.101Z,0.73
2019-04-06T20:00:15.934Z,0.90
2019-04-06T20:02:43.614Z,0.73
2019-04-06T20:05:11.785Z,0.90
2019-04-06T20:07:39.926Z,0.67
2019-04-06T20:10:08.385Z,0.80
2019-04-06T20:12:38.931Z,0.70
2019-04-06T20:15:08.723Z,0.80
2019-04-06T20:17:36.715Z,0.70
2019-04-06T20:20:05.397Z,1.50
2019-04-06T20:22:34.259Z,1.73
2019-04-06T20:25:02.152Z,1.53
2019-04-06T20:27:30.573Z,1.70
2019-04-06T20:30:01.077Z,1.40
2019-04-06T20:32:29.008Z,1.00
2019-04-06T20:34:58.809Z,1.00
2019-04-06T20:37:26.411Z,0.90
2019-04-06T20:39:54.287Z,1.07
2019-04-06T20:42:21.961Z,0.80
2019-04-06T20:44:49.556Z,1.07
2019-04-06T20:47:17.715Z,0.80
2019-04-06T20:49:46.292Z,1.00
2019-04-06T20:52:13.894Z,0.70
2019-04-06T20:54:41.695Z,0.90
2019-04-06T20:57:09.732Z,0.90
2019-04-06T20:59:39.410Z,0.70
2019-04-06T21:02:07.181Z,0.87
2019-04-06T21:04:37.316Z,0.80
2019-04-06T21:07:07.815Z,0.90
2019-04-06T21:09:36.054Z,0.90
2019-04-06T21:12:04.647Z,1.00
2019-04-06T21:14:32.754Z,1.10
2019-04-06T21:17:00.367Z,0.90
2019-04-06T21:19:28.052Z,1.17
2019-04-06T21:21:58.665Z,0.70
2019-04-06T21:24:25.995Z,1.10
2019-04-06T21:26:54.374Z,0.80
2019-04-06T21:29:21.879Z,1.00
2019-04-06T21:31:49.769Z,0.97
2019-04-06T21:34:17.279Z,1.20
2019-04-06T21:36:44.591Z,1.00
2019-04-06T21:39:12.090Z,1.10
2019-04-06T21:41:39.654Z,1.20
2019-04-06T21:44:07.491Z,1.27
2019-04-06T21:46:34.938Z,1.20
2019-04-06T21:49:02.543Z,1.57
2019-04-06T21:51:29.867Z,1.30
2019-04-06T21:53:57.582Z,1.20
2019-04-06T21:56:25.293Z,1.23
2019-04-06T21:58:52.631Z,1.10
2019-04-06T22:01:19.978Z,1.17
2019-04-06T22:03:47.437Z,1.00
2019-04-06T22:06:14.922Z,1.00
2019-04-06T22:08:43.210Z,1.10
2019-04-06T22:11:10.770Z,1.00
2019-04-06T22:13:38.227Z,1.10
2019-04-06T22:16:05.578Z,1.13
2019-04-06T22:18:32.898Z,1.00
2019-04-06T22:21:02.470Z,1.13
2019-04-06T22:23:40.384Z,1.10
2019-04-06T22:25:58.945Z,1.20
2019-04-06T22:28:26.710Z,1.10
2019-04-06T22:30:54.193Z,1.20
2019-04-06T22:33:21.729Z,1.20
2019-04-06T22:35:49.718Z,1.30
2019-04-06T22:38:17.142Z,1.07
2019-04-06T22:40:45.172Z,1.00
2019-04-06T22:43:12.408Z,1.40
2019-04-06T22:45:40.015Z,1.30
2019-04-06T22:48:07.287Z,1.17
2019-04-06T22:50:34.821Z,1.30
2019-04-06T22:53:02.658Z,1.17
2019-04-06T22:55:30.019Z,1.20
2019-04-06T22:57:57.260Z,1.10
2019-04-06T23:00:29.380Z,1.60
2019-04-06T23:03:35.511Z,1.40
2019-04-06T23:06:09.603Z,1.70
2019-04-06T23:08:37.065Z,1.70
2019-04-06T23:11:04.794Z,1.30
2019-04-06T23:13:32.414Z,1.60
2019-04-06T23:15:59.609Z,1.40
2019-04-06T23:18:27.482Z,1.60
2019-04-06T23:20:54.838Z,1.70
2019-04-06T23:23:22.082Z,1.60
2019-04-06T23:25:49.443Z,1.60
2019-04-06T23:28:16.778Z,1.80
2019-04-06T23:30:44.140Z,1.80
2019-04-06T23:33:12.056Z,2.00
2019-04-06T23:35:39.723Z,1.93
2019-04-06T23:38:07.493Z,1.80
2019-04-06T23:40:35.142Z,2.10
2019-04-06T23:43:02.858Z,2.10
2019-04-06T23:45:30.196Z,2.00
2019-04-06T23:47:57.497Z,2.20
2019-04-06T23:50:24.757Z,2.20
2019-04-06T23:52:52.066Z,2.00
2019-04-06T23:55:19.336Z,2.07
2019-04-06T23:57:46.600Z,2.30
